Time;durP1;ratioP1;P1;durP2;ratioP2;P2;SDS_P1;SDS_P2;PMS_P1;PMS_P2;Temp;Humidity;BMP_temperature;BMP_pressure;BME280_temperature;BME280_humidity;BME280_pressure;Samples;Min_cycle;Max_cycle;Signal;HPM_P1;HPM_P2
2023/04/24 00:02:37;;;;;;;6.03;3.83;;;;;;;10.48;71.05;99375.75;6373335;27;20058;-75
2023/04/24 00:05:41;;;;;;;6.45;4.05;;;;;;;10.43;70.49;99372.63;6373189;27;20097;-74
2023/04/24 00:08:41;;;;;;;7.80;4.15;;;;;;;10.36;71.69;99365.38;6355133;27;20075;-75
2023/04/24 00:11:42;;;;;;;11.95;4.10;;;;;;;10.31;71.48;99367.47;6373545;27;20047;-74
2023/04/24 00:14:43;;;;;;;10.68;4.25;;;;;;;10.25;71.09;99359.09;6356443;27;20047;-74
2023/04/24 00:17:44;;;;;;;8.23;3.97;;;;;;;10.18;71.61;99360.47;6398829;27;20133;-74
2023/04/24 00:20:45;;;;;;;9.07;3.90;;;;;;;10.16;72.04;99356.31;6380202;27;20089;-74
2023/04/24 00:23:46;;;;;;;5.93;3.42;;;;;;;10.08;71.98;99356.84;6398924;27;20438;-74
2023/04/24 00:26:47;;;;;;;7.28;4.40;;;;;;;10.01;72.96;99355.63;6398503;27;20047;-74
2023/04/24 00:29:48;;;;;;;5.85;3.90;;;;;;;9.88;73.12;99353.84;6379876;27;20401;-74
2023/04/24 00:32:48;;;;;;;5.88;3.67;;;;;;;9.87;72.71;99348.75;6398457;27;20046;-75
2023/04/24 00:35:49;;;;;;;5.70;3.97;;;;;;;9.79;74.37;99341.44;6398178;27;20068;-74
2023/04/24 00:38:50;;;;;;;5.53;3.42;;;;;;;9.77;73.74;99345.94;6379795;27;20133;-74
2023/04/24 00:41:52;;;;;;;8.55;4.35;;;;;;;9.75;73.97;99336.56;6398466;27;20481;-74
2023/04/24 00:44:53;;;;;;;6.93;4.25;;;;;;;9.72;74.34;99335.00;6379833;27;20065;-74
2023/04/24 00:47:54;;;;;;;7.05;3.70;;;;;;;9.68;75.32;99336.16;6379569;27;20049;-75
2023/04/24 00:50:58;;;;;;;7.90;4.28;;;;;;;9.65;75.13;99336.34;6397987;27;20047;-74
2023/04/24 00:54:00;;;;;;;5.03;3.08;;;;;;;9.63;74.32;99333.03;6397901;27;20138;-75
2023/04/24 00:57:03;;;;;;;6.55;4.18;;;;;;;9.62;74.27;99332.19;6379876;27;20046;-75
2023/04/24 01:00:11;;;;;;;8.07;3.92;;;;;;;9.56;74.42;99337.00;6379621;27;20042;-75
2023/04/24 01:03:17;;;;;;;6.32;3.97;;;;;;;9.53;74.44;99330.22;6397538;27;20059;-75
2023/04/24 01:06:21;;;;;;;6.57;3.50;;;;;;;9.43;72.79;99321.34;6399173;27;20046;-75
2023/04/24 01:09:23;;;;;;;6.78;3.83;;;;;;;9.45;74.84;99325.53;6403279;27;20072;-75
2023/04/24 01:12:24;;;;;;;6.90;3.93;;;;;;;9.43;74.27;99326.56;6384367;27;20050;-74
2023/04/24 01:15:25;;;;;;;4.95;3.33;;;;;;;9.43;74.21;99323.97;6382992;27;20521;-74
2023/04/24 01:18:27;;;;;;;6.80;3.58;;;;;;;9.39;74.06;99322.50;6392750;27;20043;-74
2023/04/24 01:21:30;;;;;;;7.45;3.63;;;;;;;9.39;76.73;99319.91;6376672;27;20421;-75
2023/04/24 01:24:31;;;;;;;7.90;3.60;;;;;;;9.39;76.41;99322.50;6379767;27;20047;-75
2023/04/24 01:27:32;;;;;;;6.38;3.83;;;;;;;9.34;77.56;99322.00;6377993;27;20050;-75
2023/04/24 01:30:33;;;;;;;6.20;3.80;;;;;;;9.32;78.73;99316.06;6381182;27;20039;-75
2023/04/24 01:33:34;;;;;;;6.82;3.53;;;;;;;9.29;77.83;99317.09;6361831;27;20509;-74
2023/04/24 01:36:35;;;;;;;5.53;3.70;;;;;;;9.25;78.75;99313.88;6363815;27;20043;-74
2023/04/24 01:39:36;;;;;;;5.38;3.40;;;;;;;9.20;78.30;99317.69;6381474;27;20103;-74
2023/04/24 01:42:37;;;;;;;4.47;3.13;;;;;;;9.18;79.04;99316.97;6363469;27;20097;-75
2023/04/24 01:45:38;;;;;;;5.93;3.45;;;;;;;9.16;78.94;99313.63;6379574;27;20050;-74
2023/04/24 01:48:39;;;;;;;6.47;3.85;;;;;;;9.11;77.91;99305.31;6357833;27;20050;-74
2023/04/24 01:51:40;;;;;;;5.07;3.57;;;;;;;9.05;79.02;99303.94;6394861;27;20151;-74
2023/04/24 01:54:41;;;;;;;5.53;3.50;;;;;;;9.06;79.53;99308.25;6366740;27;20043;-74
2023/04/24 01:57:41;;;;;;;5.80;3.20;;;;;;;9.01;79.60;99295.50;6391359;27;20039;-74
2023/04/24 02:00:43;;;;;;;6.47;4.25;;;;;;;8.97;79.31;99303.63;6374282;27;20450;-74
2023/04/24 02:03:43;;;;;;;5.80;3.38;;;;;;;8.93;80.50;99294.34;6389584;27;20086;-74
2023/04/24 02:06:45;;;;;;;7.35;4.40;;;;;;;8.88;79.90;99303.31;6401455;27;20125;-74
2023/04/24 02:09:45;;;;;;;5.10;3.45;;;;;;;8.86;80.27;99293.94;6383253;27;20058;-74
2023/04/24 02:12:46;;;;;;;4.70;3.60;;;;;;;8.81;80.89;99291.66;6357466;27;20055;-74
2023/04/24 02:15:47;;;;;;;5.22;3.70;;;;;;;8.80;80.45;99289.13;6360909;27;20134;-74
2023/04/24 02:18:48;;;;;;;6.32;3.53;;;;;;;8.74;81.56;99287.75;6376501;27;20050;-74
2023/04/24 02:21:51;;;;;;;5.68;3.63;;;;;;;8.70;81.33;99286.31;6400578;27;20054;-74
2023/04/24 02:24:51;;;;;;;9.00;3.85;;;;;;;8.65;82.09;99290.97;6369231;27;20047;-74
2023/04/24 02:27:54;;;;;;;7.05;3.70;;;;;;;8.61;81.56;99281.72;6401239;27;20489;-74
2023/04/24 02:30:55;;;;;;;5.03;3.38;;;;;;;8.57;81.65;99286.28;6400810;27;20485;-74
2023/04/24 02:33:56;;;;;;;8.13;4.55;;;;;;;8.53;81.31;99276.19;6400240;27;20485;-74
2023/04/24 02:36:57;;;;;;;4.45;2.95;;;;;;;8.45;80.50;99279.25;6382299;27;20050;-74
2023/04/24 02:39:58;;;;;;;5.38;3.35;;;;;;;8.34;80.87;99279.94;6401166;27;20099;-74
2023/04/24 02:43:01;;;;;;;4.05;3.17;;;;;;;8.33;80.65;99278.25;6381720;27;20489;-74
2023/04/24 02:46:02;;;;;;;6.38;3.10;;;;;;;8.30;79.95;99273.25;6400596;27;20484;-74
2023/04/24 02:49:03;;;;;;;5.97;4.00;;;;;;;8.33;80.30;99272.22;6400787;27;20050;-74
2023/04/24 02:52:04;;;;;;;9.38;3.72;;;;;;;8.32;80.53;99262.75;6399844;27;20054;-74
2023/04/24 02:55:05;;;;;;;13.35;4.18;;;;;;;8.38;81.46;99268.41;6395308;27;20051;-74
2023/04/24 02:58:06;;;;;;;11.43;5.13;;;;;;;8.41;81.46;99267.41;6400139;27;20050;-75
2023/04/24 03:01:07;;;;;;;6.32;3.63;;;;;;;8.38;81.63;99262.34;6375663;27;20550;-74
2023/04/24 03:04:07;;;;;;;8.18;4.10;;;;;;;8.38;81.85;99264.94;6399892;27;20397;-75
2023/04/24 03:07:08;;;;;;;6.63;4.28;;;;;;;8.34;81.45;99256.53;6398770;27;20075;-74
2023/04/24 03:10:09;;;;;;;7.38;4.38;;;;;;;8.30;81.57;99259.41;6387330;27;20061;-74
2023/04/24 03:13:10;;;;;;;7.65;3.97;;;;;;;8.28;82.14;99262.13;6376541;27;20061;-74
2023/04/24 03:16:11;;;;;;;5.90;3.42;;;;;;;8.27;81.54;99263.03;6374201;27;20130;-74
2023/04/24 03:19:12;;;;;;;9.02;4.50;;;;;;;8.24;81.81;99265.84;6374468;27;20096;-74
2023/04/24 03:22:13;;;;;;;5.93;4.03;;;;;;;8.20;81.47;99264.38;6367458;27;20047;-74
2023/04/24 03:25:14;;;;;;;6.20;3.45;;;;;;;8.17;83.13;99264.56;6370139;27;20079;-74
2023/04/24 03:28:15;;;;;;;10.80;4.00;;;;;;;8.14;83.50;99272.56;6379776;27;20046;-74
2023/04/24 03:31:17;;;;;;;6.18;3.42;;;;;;;8.14;83.31;99272.56;6381609;27;20104;-74
2023/04/24 03:34:18;;;;;;;5.78;3.28;;;;;;;8.09;82.59;99272.84;6381372;27;20047;-74
2023/04/24 03:37:18;;;;;;;4.57;3.17;;;;;;;8.08;83.51;99276.38;6380951;27;20043;-74
2023/04/24 03:40:19;;;;;;;13.23;3.72;;;;;;;8.05;83.90;99263.56;6399700;27;20507;-74
2023/04/24 03:43:22;;;;;;;5.43;3.00;;;;;;;7.99;83.81;99270.00;6399210;27;20189;-74
2023/04/24 03:46:23;;;;;;;5.22;3.03;;;;;;;7.98;83.41;99259.69;6366797;27;20055;-74
2023/04/24 05:13:13;;;;;;;6.25;4.68;;;;;;;8.88;83.73;99268.66;6312006;27;20386;-71
2023/04/24 05:16:16;;;;;;;9.35;4.60;;;;;;;9.00;82.39;99262.63;6330910;28;20427;-74
2023/04/24 05:19:17;;;;;;;9.30;4.15;;;;;;;9.06;82.92;99258.78;6316339;28;20616;-74
2023/04/24 05:22:20;;;;;;;8.85;3.50;;;;;;;9.20;82.72;99266.47;6290927;28;20049;-74
2023/04/24 05:25:26;;;;;;;5.22;3.10;;;;;;;9.37;82.78;99273.16;6318470;28;20139;-74
2023/04/24 05:28:28;;;;;;;7.00;3.97;;;;;;;9.57;82.33;99274.38;6318280;28;20048;-75
2023/04/24 05:31:29;;;;;;;6.78;4.07;;;;;;;9.73;80.01;99268.09;6318397;28;20491;-75
2023/04/24 05:34:30;;;;;;;10.00;3.95;;;;;;;10.04;79.36;99278.03;6317351;28;20051;-75
2023/04/24 05:37:31;;;;;;;7.30;3.03;;;;;;;10.27;77.98;99281.63;6317393;28;20083;-75
2023/04/24 05:40:32;;;;;;;7.28;3.60;;;;;;;10.56;75.82;99276.06;6310652;28;20102;-75
2023/04/24 05:43:32;;;;;;;5.75;3.40;;;;;;;10.84;77.14;99274.88;6275250;28;20131;-75
2023/04/24 05:46:33;;;;;;;3.88;2.90;;;;;;;11.05;73.59;99271.59;6308358;28;20052;-75
2023/04/24 05:49:34;;;;;;;5.65;2.95;;;;;;;11.30;73.94;99267.94;6292986;28;20045;-75
2023/04/24 05:52:35;;;;;;;5.55;3.42;;;;;;;11.60;73.21;99266.53;6308539;28;20129;-75
2023/04/24 05:55:36;;;;;;;7.57;3.42;;;;;;;11.85;72.81;99260.22;6292454;28;20053;-75
2023/04/24 05:58:39;;;;;;;4.97;3.05;;;;;;;12.07;71.80;99262.00;6308334;28;20045;-75
2023/04/24 06:01:40;;;;;;;5.57;2.88;;;;;;;12.35;69.57;99265.81;6308434;28;20549;-75
2023/04/24 06:04:41;;;;;;;5.10;2.97;;;;;;;12.54;70.29;99257.34;6275145;28;20048;-75
2023/04/24 06:07:42;;;;;;;4.10;3.28;;;;;;;12.82;68.73;99268.13;6292379;28;20552;-76
2023/04/24 06:10:43;;;;;;;4.28;2.70;;;;;;;13.16;65.79;99263.53;6308022;28;20052;-76
2023/04/24 06:13:43;;;;;;;4.85;3.35;;;;;;;13.49;64.38;99252.00;6293747;28;20053;-75
2023/04/24 06:16:44;;;;;;;4.78;2.95;;;;;;;13.87;64.10;99258.34;6258170;28;20056;-75
2023/04/24 06:19:45;;;;;;;4.78;2.63;;;;;;;14.13;61.67;99257.03;6290943;28;20101;-75
2023/04/24 06:22:48;;;;;;;5.38;3.35;;;;;;;14.40;60.36;99257.19;6291251;28;20056;-75
2023/04/24 06:25:52;;;;;;;6.60;2.97;;;;;;;14.61;58.18;99259.69;6275907;28;20053;-76
2023/04/24 06:28:56;;;;;;;6.45;2.90;;;;;;;14.73;57.68;99263.00;6275160;28;20053;-76
2023/04/24 06:31:57;;;;;;;3.35;2.47;;;;;;;14.80;57.35;99258.84;6275397;28;20487;-75
2023/04/24 06:35:00;;;;;;;8.23;2.80;;;;;;;14.93;56.91;99265.59;6292101;28;20064;-75
2023/04/24 06:38:01;;;;;;;3.33;2.67;;;;;;;14.86;57.47;99260.91;6286251;28;20060;-75
2023/04/24 06:41:03;;;;;;;5.38;2.83;;;;;;;15.02;56.58;99264.78;6297487;28;20462;-75
2023/04/24 06:44:04;;;;;;;2.95;2.47;;;;;;;15.10;54.90;99264.91;6299550;28;20512;-76
2023/04/24 06:47:05;;;;;;;3.38;2.40;;;;;;;15.35;54.53;99263.44;6300013;28;20055;-75
2023/04/24 06:50:06;;;;;;;2.88;2.42;;;;;;;15.52;54.85;99259.22;6281513;28;20420;-76
2023/04/24 06:53:08;;;;;;;4.10;2.35;;;;;;;15.81;54.63;99261.75;6281822;28;20488;-75
2023/04/24 06:56:08;;;;;;;3.20;2.50;;;;;;;16.03;53.98;99255.25;6299387;28;20079;-76
2023/04/24 06:59:09;;;;;;;3.58;2.38;;;;;;;16.23;51.68;99255.16;6299145;28;20507;-75
2023/04/24 07:02:10;;;;;;;5.97;2.30;;;;;;;16.58;49.85;99254.31;6281590;28;20495;-75
2023/04/24 07:05:15;;;;;;;3.28;2.45;;;;;;;17.01;49.81;99254.53;6281442;28;20127;-76
2023/04/24 07:08:18;;;;;;;3.92;2.60;;;;;;;17.10;50.43;99251.75;6299567;28;20139;-76
2023/04/24 07:11:19;;;;;;;2.83;1.92;;;;;;;17.26;49.65;99247.59;6298983;28;20057;-75
2023/04/24 07:14:23;;;;;;;4.05;2.45;;;;;;;17.32;48.22;99241.69;6299289;28;20048;-75
2023/04/24 07:17:23;;;;;;;4.15;2.45;;;;;;;17.43;49.01;99246.69;6299461;28;20052;-76
2023/04/24 07:20:24;;;;;;;5.07;1.95;;;;;;;17.33;48.51;99249.41;6281399;28;20051;-75
2023/04/24 07:23:25;;;;;;;5.53;2.30;;;;;;;17.40;49.41;99252.28;6280728;28;20053;-76
2023/04/24 07:26:28;;;;;;;5.43;2.35;;;;;;;17.08;49.91;99252.91;6298323;28;20128;-76
2023/04/24 07:29:29;;;;;;;3.28;2.28;;;;;;;17.22;49.46;99254.16;6298814;28;20048;-76
2023/04/24 07:32:30;;;;;;;2.65;2.05;;;;;;;17.35;50.68;99251.09;6280782;28;20052;-75
2023/04/24 07:35:31;;;;;;;3.30;2.15;;;;;;;17.45;48.50;99257.06;6281103;28;20044;-76
2023/04/24 07:38:34;;;;;;;2.90;2.08;;;;;;;17.59;47.82;99251.22;6280436;28;20412;-75
2023/04/24 07:41:34;;;;;;;4.20;2.35;;;;;;;17.55;47.30;99247.22;6280742;28;20044;-76
2023/04/24 07:44:37;;;;;;;2.50;1.70;;;;;;;17.63;46.10;99244.63;6298238;28;20127;-76
2023/04/24 07:47:39;;;;;;;4.65;1.80;;;;;;;17.64;47.19;99246.28;6280156;28;20529;-75
2023/04/24 07:50:40;;;;;;;4.25;2.30;;;;;;;17.68;47.81;99242.34;6298075;28;20049;-76
2023/04/24 07:53:43;;;;;;;2.17;1.83;;;;;;;17.84;47.23;99246.88;6291370;28;20062;-76
2023/04/24 07:56:44;;;;;;;2.53;2.00;;;;;;;18.19;47.34;99250.28;6285856;28;20098;-76
2023/04/24 07:59:47;;;;;;;4.90;1.83;;;;;;;17.91;46.92;99247.91;6286706;28;20056;-76
2023/04/24 08:02:48;;;;;;;2.95;1.95;;;;;;;17.70;48.82;99247.47;6288261;28;20049;-75
2023/04/24 08:05:50;;;;;;;5.93;2.20;;;;;;;17.44;48.09;99256.25;6255099;28;20412;-76
2023/04/24 08:08:53;;;;;;;4.60;2.30;;;;;;;17.35;48.31;99254.53;6272798;28;20076;-75
2023/04/24 08:11:54;;;;;;;2.45;1.90;;;;;;;17.46;48.54;99243.75;6272302;28;20048;-76
2023/04/24 08:14:57;;;;;;;5.78;2.00;;;;;;;17.44;47.92;99260.69;6288338;28;20106;-76
2023/04/24 08:17:58;;;;;;;4.57;2.17;;;;;;;17.53;48.39;99257.13;6288189;28;20090;-76
2023/04/24 08:21:01;;;;;;;4.18;2.10;;;;;;;17.45;49.13;99252.63;6287728;28;20045;-75
2023/04/24 08:24:05;;;;;;;7.00;1.80;;;;;;;17.34;49.20;99258.19;6254601;28;20053;-76
2023/04/24 08:27:05;;;;;;;2.08;1.70;;;;;;;17.42;50.49;99258.22;6287631;28;20055;-76
2023/04/24 08:30:07;;;;;;;4.82;2.15;;;;;;;17.44;51.56;99260.69;6272290;28;20048;-76
2023/04/24 08:33:09;;;;;;;5.03;1.90;;;;;;;17.48;49.40;99268.16;6272271;28;20056;-76
2023/04/24 08:36:12;;;;;;;4.90;2.80;;;;;;;17.66;49.42;99260.13;6272022;28;20144;-75
2023/04/24 08:39:14;;;;;;;4.63;1.80;;;;;;;17.80;49.00;99257.88;6287360;28;20053;-76
2023/04/24 08:42:16;;;;;;;3.30;2.20;;;;;;;17.86;48.05;99262.56;6272112;28;20111;-75
2023/04/24 08:45:17;;;;;;;2.90;1.75;;;;;;;17.38;48.99;99264.78;6287703;28;20049;-75
2023/04/24 08:48:18;;;;;;;3.55;2.00;;;;;;;17.40;48.94;99272.53;6287492;28;20131;-76
2023/04/24 08:51:20;;;;;;;3.83;1.97;;;;;;;17.08;50.95;99274.00;6254514;28;20088;-75
2023/04/24 08:54:21;;;;;;;3.22;2.22;;;;;;;16.80;51.02;99275.88;6254095;28;20099;-75
2023/04/24 08:57:22;;;;;;;11.60;2.15;;;;;;;16.76;51.34;99269.25;6271792;28;20491;-75
2023/04/24 09:00:25;;;;;;;3.88;2.35;;;;;;;16.58;53.36;99259.59;6271766;28;20045;-76
2023/04/24 09:03:28;;;;;;;4.68;2.03;;;;;;;16.61;53.84;99274.25;6272011;28;20130;-75
2023/04/24 09:06:32;;;;;;;2.17;1.98;;;;;;;16.66;55.11;99275.47;6253679;28;20571;-75
2023/04/24 09:09:33;;;;;;;2.72;2.20;;;;;;;16.75;55.49;99273.72;6272266;28;20401;-75
2023/04/24 09:12:34;;;;;;;3.60;1.90;;;;;;;16.97;55.25;99272.44;6271908;28;20052;-76
2023/04/24 09:15:35;;;;;;;2.77;2.40;;;;;;;17.03;54.80;99276.28;6287189;28;20139;-75
2023/04/24 09:18:36;;;;;;;5.53;2.83;;;;;;;16.99;55.04;99270.47;6287237;28;20049;-76
2023/04/24 09:21:40;;;;;;;3.38;2.20;;;;;;;16.98;54.95;99273.25;6271615;28;20190;-76
2023/04/24 09:24:41;;;;;;;3.42;2.13;;;;;;;16.80;56.77;99273.25;6287185;28;20484;-76
2023/04/24 09:27:45;;;;;;;2.10;1.90;;;;;;;16.60;56.50;99273.44;6271328;28;20053;-76
2023/04/24 09:31:01;;;;;;;3.30;2.10;;;;;;;16.64;57.19;99280.06;6271371;28;20045;-75
2023/04/24 09:34:06;;;;;;;3.25;2.33;;;;;;;16.81;57.63;99274.94;6287245;28;20147;-75
2023/04/24 09:37:09;;;;;;;4.65;2.42;;;;;;;16.88;57.27;99274.19;6271343;28;20045;-75
2023/04/24 09:40:19;;;;;;;2.63;2.15;;;;;;;16.77;56.98;99274.38;6271228;28;20523;-76
2023/04/24 09:43:20;;;;;;;3.90;2.30;;;;;;;16.70;58.54;99268.09;6253762;28;20053;-76
2023/04/24 09:46:28;;;;;;;3.50;2.17;;;;;;;16.88;59.27;99271.56;6271418;28;20459;-76
2023/04/24 09:49:33;;;;;;;4.18;2.17;;;;;;;16.86;59.00;99270.88;6257946;28;20057;-75
2023/04/24 09:52:33;;;;;;;3.75;2.30;;;;;;;17.15;59.74;99276.81;6275862;28;20049;-75
2023/04/24 09:55:40;;;;;;;4.05;2.88;;;;;;;16.97;59.43;99276.88;6276021;28;20203;-76
2023/04/24 09:58:41;;;;;;;2.58;2.15;;;;;;;16.89;60.83;99278.47;6258038;28;20053;-75
2023/04/24 10:01:45;;;;;;;3.95;1.98;;;;;;;16.68;62.04;99280.59;6291194;28;20080;-76
2023/04/24 10:04:58;;;;;;;3.17;1.92;;;;;;;16.76;62.77;99272.75;6258011;28;20589;-76
2023/04/24 10:08:07;;;;;;;4.25;2.80;;;;;;;16.68;64.60;99286.66;6275710;28;20416;-76
2023/04/24 10:11:11;;;;;;;3.63;2.42;;;;;;;16.38;66.86;99293.13;6257484;28;20092;-76
2023/04/24 10:14:17;;;;;;;2.58;2.08;;;;;;;16.30;67.75;99293.03;6275493;28;20131;-76
2023/04/24 10:17:20;;;;;;;5.22;1.95;;;;;;;16.20;67.74;99279.13;6290761;28;20064;-76
2023/04/24 10:20:26;;;;;;;3.42;2.33;;;;;;;16.49;67.76;99290.28;6290734;28;20126;-76
2023/04/24 10:23:27;;;;;;;2.33;1.95;;;;;;;16.36;65.99;99287.19;6275407;28;20056;-76
2023/04/24 10:26:31;;;;;;;2.22;1.88;;;;;;;16.46;66.86;99282.69;6291145;28;20057;-76
2023/04/24 10:29:35;;;;;;;2.15;1.55;;;;;;;16.28;68.88;99290.56;6275097;28;20091;-75
2023/04/24 10:32:36;;;;;;;2.65;2.05;;;;;;;16.15;71.72;99284.00;6274757;28;20627;-75
2023/04/24 10:35:45;;;;;;;3.83;2.17;;;;;;;15.97;74.32;99287.41;6257466;28;20045;-75
2023/04/24 10:38:47;;;;;;;2.13;1.92;;;;;;;15.82;76.60;99281.00;6290480;28;20071;-75
2023/04/24 10:41:51;;;;;;;2.53;2.10;;;;;;;15.69;80.61;99276.88;6290192;28;20064;-76
2023/04/24 10:44:53;;;;;;;4.03;2.15;;;;;;;15.26;82.80;99280.09;6257115;28;20094;-75
2023/04/24 10:48:13;;;;;;;4.45;2.30;;;;;;;15.00;85.32;99285.09;6289989;28;20488;-75
2023/04/24 10:51:16;;;;;;;3.90;1.95;;;;;;;14.97;89.23;99288.84;6274966;28;20091;-76
2023/04/24 10:54:27;;;;;;;2.67;2.15;;;;;;;14.68;96.28;99287.06;6290245;28;20049;-76
2023/04/24 10:57:30;;;;;;;5.82;2.95;;;;;;;14.44;99.74;99286.63;6274399;28;20049;-76
2023/04/24 11:00:37;;;;;;;5.60;2.70;;;;;;;14.19;100.00;99285.34;6257128;28;20484;-75
2023/04/24 11:03:41;;;;;;;6.18;3.00;;;;;;;14.31;100.00;99290.34;6274366;28;20053;-76
2023/04/24 11:06:44;;;;;;;3.63;2.75;;;;;;;14.14;100.00;99290.97;6274206;28;20057;-76
2023/04/24 11:09:47;;;;;;;6.38;3.80;;;;;;;13.95;100.00;99291.75;6274015;28;20052;-76
2023/04/24 11:12:51;;;;;;;5.60;3.42;;;;;;;14.10;100.00;99292.22;6273533;28;20061;-76
2023/04/24 11:16:22;;;;;;;4.22;3.20;;;;;;;14.14;100.00;99288.34;6255864;28;20486;-76
2023/04/24 11:19:25;;;;;;;3.67;2.47;;;;;;;13.96;100.00;99289.97;6273774;28;20041;-77
2023/04/24 11:22:29;;;;;;;4.03;3.20;;;;;;;13.96;100.00;99295.22;6255994;28;20140;-77
2023/04/24 11:25:31;;;;;;;5.05;3.53;;;;;;;13.97;100.00;99292.47;6289176;28;20128;-77
2023/04/24 11:28:32;;;;;;;8.57;3.25;;;;;;;14.06;100.00;99286.44;6288764;28;20060;-73
2023/04/24 11:31:48;;;;;;;7.18;3.05;;;;;;;14.10;100.00;99285.19;6288802;28;20045;-73
2023/04/24 11:34:51;;;;;;;5.43;3.65;;;;;;;14.07;100.00;99284.63;6288691;28;20052;-77
2023/04/24 11:37:53;;;;;;;5.25;3.25;;;;;;;14.18;100.00;99284.50;6255420;28;20044;-77
2023/04/24 11:40:55;;;;;;;5.82;3.75;;;;;;;14.18;100.00;99274.00;6273009;28;20435;-72
2023/04/24 11:43:56;;;;;;;7.30;4.13;;;;;;;14.12;100.00;99277.16;6273355;28;20056;-77
2023/04/24 11:46:59;;;;;;;11.90;4.82;;;;;;;14.21;100.00;99270.28;6288681;28;20056;-77
2023/04/24 11:50:01;;;;;;;11.38;6.40;;;;;;;14.26;100.00;99271.53;6288695;28;20492;-77
2023/04/24 11:53:02;;;;;;;11.02;5.65;;;;;;;14.30;100.00;99269.47;6272697;28;20417;-73
2023/04/24 11:56:04;;;;;;;6.88;4.80;;;;;;;14.16;100.00;99269.84;6273228;28;20123;-76
2023/04/24 11:59:05;;;;;;;10.55;4.75;;;;;;;13.98;100.00;99267.06;6272791;28;20049;-73
2023/04/24 12:02:06;;;;;;;13.25;6.43;;;;;;;14.08;100.00;99274.00;6287977;28;20190;-77
2023/04/24 12:05:11;;;;;;;7.13;4.97;;;;;;;14.03;100.00;99278.00;6255025;28;20048;-77
2023/04/24 12:08:26;;;;;;;6.15;3.85;;;;;;;13.90;100.00;99257.25;6272391;28;20132;-76
2023/04/24 12:11:27;;;;;;;7.30;4.60;;;;;;;13.96;100.00;99261.97;6272060;28;20064;-77
2023/04/24 12:14:31;;;;;;;16.00;8.20;;;;;;;13.98;100.00;99262.66;6288062;28;20060;-73
2023/04/24 12:17:35;;;;;;;10.57;6.22;;;;;;;13.93;100.00;99250.91;6272523;28;20084;-77
2023/04/24 12:20:35;;;;;;;9.98;5.15;;;;;;;13.74;100.00;99252.50;6272416;28;20045;-77
2023/04/24 12:23:37;;;;;;;8.45;4.78;;;;;;;13.75;100.00;99248.91;6272628;28;20464;-77
2023/04/24 12:26:43;;;;;;;7.65;4.13;;;;;;;13.81;100.00;99243.13;6272256;28;20060;-76
2023/04/24 12:29:57;;;;;;;8.52;4.00;;;;;;;13.64;100.00;99234.13;6287955;28;20049;-77
2023/04/24 12:33:00;;;;;;;5.88;4.15;;;;;;;13.58;100.00;99226.78;6271885;28;20098;-77
2023/04/24 12:36:03;;;;;;;4.75;4.03;;;;;;;13.54;100.00;99221.97;6254593;28;20334;-76
2023/04/24 12:39:17;;;;;;;5.78;3.92;;;;;;;13.39;100.00;99198.72;6272068;28;20140;-77
2023/04/24 12:42:26;;;;;;;6.13;4.05;;;;;;;13.38;100.00;99201.47;6272086;28;20477;-77
2023/04/24 12:45:27;;;;;;;6.05;4.05;;;;;;;13.41;100.00;99203.84;6254148;28;20416;-76
2023/04/24 12:48:29;;;;;;;6.30;4.15;;;;;;;13.35;100.00;99215.69;6287762;28;20045;-76
2023/04/24 12:51:30;;;;;;;5.78;4.18;;;;;;;13.42;100.00;99208.13;6287326;28;20045;-76
2023/04/24 12:54:36;;;;;;;5.45;3.65;;;;;;;13.57;100.00;99206.81;6272091;28;20076;-77
2023/04/24 12:57:39;;;;;;;16.88;4.45;;;;;;;13.75;100.00;99212.22;6271755;28;20064;-77
2023/04/24 13:00:43;;;;;;;10.35;4.10;;;;;;;13.79;100.00;99210.97;6271593;28;20515;-77
2023/04/24 13:03:43;;;;;;;5.82;4.30;;;;;;;13.68;100.00;99209.31;6279618;28;20044;-77
2023/04/24 13:06:44;;;;;;;9.38;4.47;;;;;;;13.71;100.00;99202.94;6269469;28;20091;-77
2023/04/24 13:09:45;;;;;;;6.65;4.45;;;;;;;13.77;100.00;99210.28;6286307;28;20057;-77
2023/04/24 13:12:47;;;;;;;5.50;4.18;;;;;;;13.69;100.00;99207.50;6253627;28;20416;-77
2023/04/24 13:15:47;;;;;;;6.50;4.38;;;;;;;13.72;100.00;99204.63;6287223;28;20076;-77
2023/04/24 13:18:48;;;;;;;6.75;4.88;;;;;;;14.09;100.00;99199.56;6271241;28;20060;-77
2023/04/24 13:21:49;;;;;;;6.03;4.13;;;;;;;14.16;100.00;99196.41;6271586;28;20416;-76
2023/04/24 13:24:52;;;;;;;6.68;4.45;;;;;;;14.05;100.00;99195.56;6276243;28;20061;-77
2023/04/24 13:27:55;;;;;;;7.50;4.47;;;;;;;14.04;100.00;99187.81;6276640;28;20094;-77
2023/04/24 13:30:56;;;;;;;5.43;4.25;;;;;;;13.99;100.00;99174.31;6276181;28;20048;-78
2023/04/24 13:33:57;;;;;;;9.00;5.22;;;;;;;14.11;100.00;99176.66;6275929;28;20508;-77
2023/04/24 13:36:58;;;;;;;6.07;4.45;;;;;;;14.17;100.00;99169.22;6291741;28;20420;-77
2023/04/24 13:40:01;;;;;;;7.88;5.28;;;;;;;14.14;100.00;99166.84;6276338;28;20057;-77
2023/04/24 13:43:02;;;;;;;10.00;5.43;;;;;;;14.18;100.00;99163.81;6258409;28;20090;-78
2023/04/24 13:46:03;;;;;;;8.23;6.03;;;;;;;14.28;100.00;99159.38;6257782;28;20049;-77
2023/04/24 13:49:04;;;;;;;6.10;4.22;;;;;;;14.41;100.00;99160.91;6275960;28;20048;-77
2023/04/24 13:52:05;;;;;;;7.93;4.82;;;;;;;14.41;100.00;99155.66;6257871;28;20045;-77
2023/04/24 13:55:06;;;;;;;8.88;4.75;;;;;;;14.63;100.00;99146.69;6291264;28;20049;-78
2023/04/24 13:58:07;;;;;;;7.53;5.32;;;;;;;14.75;100.00;99148.16;6258243;28;20106;-78
2023/04/24 14:01:08;;;;;;;6.90;4.95;;;;;;;14.69;100.00;99144.31;6290841;28;20109;-78
2023/04/24 14:04:11;;;;;;;11.23;5.25;;;;;;;14.70;100.00;99145.97;6275266;28;20057;-78
2023/04/24 14:07:14;;;;;;;7.55;4.72;;;;;;;14.76;100.00;99135.88;6290699;28;20103;-78
2023/04/24 14:10:15;;;;;;;7.63;4.65;;;;;;;14.89;100.00;99125.88;6290439;28;20088;-78
2023/04/24 14:13:19;;;;;;;5.75;4.47;;;;;;;15.02;100.00;99130.81;6290495;28;20106;-79
2023/04/24 14:16:22;;;;;;;7.75;4.80;;;;;;;14.94;100.00;99118.38;6275284;28;20049;-78
2023/04/24 14:19:25;;;;;;;7.30;4.85;;;;;;;15.06;100.00;99125.09;6290475;28;20052;-78
2023/04/24 14:22:29;;;;;;;10.68;4.38;;;;;;;14.83;100.00;99111.53;6275200;28;20044;-78
2023/04/24 14:25:30;;;;;;;6.88;4.53;;;;;;;15.06;100.00;99111.97;6274829;28;20420;-78
2023/04/24 14:28:32;;;;;;;7.30;4.40;;;;;;;15.02;100.00;99113.22;6257163;28;20416;-78
2023/04/24 14:31:32;;;;;;;5.47;4.32;;;;;;;15.15;100.00;99115.53;6274740;28;20080;-78
2023/04/24 14:34:33;;;;;;;9.68;5.70;;;;;;;14.78;100.00;99105.03;6274455;28;20412;-77
2023/04/24 14:37:35;;;;;;;6.32;4.70;;;;;;;14.89;100.00;99107.50;6290406;28;20419;-77
2023/04/24 14:40:37;;;;;;;6.10;4.18;;;;;;;14.84;100.00;99114.97;6274804;28;20044;-77
2023/04/24 14:43:40;;;;;;;7.10;4.15;;;;;;;14.93;100.00;99111.50;6274767;28;20053;-77
2023/04/24 14:46:41;;;;;;;8.45;4.10;;;;;;;14.88;100.00;99106.66;6290120;28;20052;-77
2023/04/24 14:49:43;;;;;;;7.07;4.80;;;;;;;15.00;100.00;99101.22;6274915;28;20048;-77
2023/04/24 14:52:44;;;;;;;5.03;4.07;;;;;;;15.20;100.00;99100.16;6274259;28;20049;-77
2023/04/24 14:55:45;;;;;;;4.95;3.67;;;;;;;15.11;100.00;99106.28;6281903;28;20453;-77
2023/04/24 14:58:46;;;;;;;5.47;4.00;;;;;;;15.16;100.00;99100.59;6296779;28;20060;-77
2023/04/24 15:01:46;;;;;;;5.65;4.22;;;;;;;15.10;100.00;99100.19;6299547;28;20044;-77
2023/04/24 15:04:47;;;;;;;5.18;3.38;;;;;;;14.95;100.00;99088.53;6282017;28;20093;-77
2023/04/24 15:07:48;;;;;;;6.32;4.05;;;;;;;15.03;100.00;99090.41;6281599;28;20044;-77
2023/04/24 15:10:49;;;;;;;6.65;3.83;;;;;;;15.07;100.00;99091.78;6281383;28;20052;-77
2023/04/24 15:13:50;;;;;;;7.70;4.17;;;;;;;15.21;100.00;99079.97;6299281;28;20483;-77
2023/04/24 15:16:51;;;;;;;4.13;3.58;;;;;;;15.21;100.00;99078.16;6281547;28;20052;-76
2023/04/24 15:19:52;;;;;;;6.60;4.45;;;;;;;15.07;100.00;99084.75;6281411;28;20060;-76
2023/04/24 15:22:52;;;;;;;5.72;4.25;;;;;;;14.82;100.00;99074.88;6299454;28;20381;-77
2023/04/24 15:25:53;;;;;;;7.35;4.72;;;;;;;14.94;100.00;99068.47;6281477;28;20075;-77
2023/04/24 15:28:54;;;;;;;7.35;4.28;;;;;;;14.97;100.00;99070.84;6299679;28;20424;-77
2023/04/24 15:31:55;;;;;;;8.52;4.78;;;;;;;14.98;100.00;99061.97;6281589;28;20079;-77
2023/04/24 15:34:56;;;;;;;7.10;4.03;;;;;;;14.88;100.00;99062.00;6281336;28;20053;-77
2023/04/24 15:37:56;;;;;;;5.00;3.85;;;;;;;14.83;100.00;99058.19;6281137;28;20135;-77
2023/04/24 15:40:57;;;;;;;7.55;4.63;;;;;;;14.90;100.00;99062.69;6281168;28;20060;-77